createdAt,value
2019-05-11T00:00:31.736Z,0.00
2019-05-11T00:01:31.841Z,0.00
2019-05-11T00:02:31.923Z,0.00
2019-05-11T00:03:32.014Z,0.00
2019-05-11T00:04:32.111Z,0.00
2019-05-11T00:05:32.203Z,0.00
2019-05-11T00:06:32.297Z,0.00
2019-05-11T00:07:32.390Z,0.00
2019-05-11T00:08:32.479Z,0.00
2019-05-11T00:09:32.571Z,0.00
2019-05-11T00:10:32.661Z,0.00
2019-05-11T00:11:32.756Z,0.00
2019-05-11T00:12:32.840Z,0.00
2019-05-11T00:13:32.930Z,0.00
2019-05-11T00:14:33.023Z,0.00
2019-05-11T00:15:33.116Z,0.00
2019-05-11T00:16:33.206Z,0.00
2019-05-11T00:17:33.306Z,0.00
2019-05-11T00:18:33.389Z,0.00
2019-05-11T00:19:33.482Z,0.00
2019-05-11T00:20:33.572Z,0.00
2019-05-11T00:21:33.664Z,0.00
2019-05-11T00:22:33.750Z,0.00
2019-05-11T00:23:33.854Z,0.00
2019-05-11T00:24:33.952Z,0.00
2019-05-11T00:25:34.051Z,0.00
2019-05-11T00:26:34.145Z,0.00
2019-05-11T00:27:34.230Z,0.00
2019-05-11T00:28:34.326Z,0.00
2019-05-11T00:29:34.414Z,0.00
2019-05-11T00:30:34.517Z,0.00
2019-05-11T00:31:34.602Z,0.00
2019-05-11T00:32:34.706Z,0.00
2019-05-11T00:33:34.781Z,0.00
2019-05-11T00:34:34.867Z,0.00
2019-05-11T00:35:34.957Z,0.00
2019-05-11T00:36:35.057Z,0.00
2019-05-11T00:37:35.142Z,0.00
2019-05-11T00:38:35.236Z,0.00
2019-05-11T00:39:35.326Z,0.00
2019-05-11T00:40:35.418Z,0.00
2019-05-11T00:41:35.508Z,0.00
2019-05-11T00:42:35.599Z,0.00
2019-05-11T00:43:35.692Z,0.00
2019-05-11T00:44:35.783Z,0.00
2019-05-11T00:45:35.875Z,0.00
2019-05-11T00:46:35.967Z,0.00
2019-05-11T00:47:36.058Z,0.00
2019-05-11T00:48:36.145Z,0.00
2019-05-11T00:49:36.248Z,0.00
2019-05-11T00:50:39.253Z,0.00
2019-05-11T00:51:36.427Z,0.00
2019-05-11T00:52:36.520Z,0.00
2019-05-11T00:53:36.611Z,0.00
2019-05-11T00:54:36.698Z,0.00
2019-05-11T00:55:36.791Z,0.00
2019-05-11T00:56:36.885Z,0.00
2019-05-11T00:57:36.971Z,0.00
2019-05-11T00:58:37.064Z,0.00
2019-05-11T00:59:37.157Z,0.00
2019-05-11T01:00:37.249Z,0.00
2019-05-11T01:01:37.336Z,0.00
2019-05-11T01:02:37.429Z,0.00
2019-05-11T01:03:37.520Z,0.00
2019-05-11T01:04:37.611Z,0.00
2019-05-11T01:05:37.702Z,0.00
2019-05-11T01:06:37.803Z,0.00
2019-05-11T01:07:37.887Z,0.00
2019-05-11T01:08:37.975Z,0.00
2019-05-11T01:09:38.064Z,0.00
2019-05-11T01:10:42.120Z,0.00
2019-05-11T01:11:38.248Z,0.00
2019-05-11T01:12:38.343Z,0.00
2019-05-11T01:13:38.431Z,0.00
2019-05-11T01:14:38.550Z,0.00
2019-05-11T01:15:38.641Z,0.00
2019-05-11T01:16:38.733Z,0.00
2019-05-11T01:17:38.823Z,0.00
2019-05-11T01:18:38.914Z,0.00
2019-05-11T01:19:39.003Z,0.00
2019-05-11T01:20:39.096Z,0.00
2019-05-11T01:21:39.185Z,0.00
2019-05-11T01:22:39.275Z,0.00
2019-05-11T01:23:39.368Z,0.00
2019-05-11T01:24:39.458Z,0.00
2019-05-11T01:25:39.558Z,0.00
2019-05-11T01:26:39.647Z,0.00
2019-05-11T01:27:39.741Z,0.00
2019-05-11T01:28:39.836Z,0.00
2019-05-11T01:29:39.933Z,0.00
2019-05-11T01:30:40.074Z,0.00
2019-05-11T01:31:40.107Z,0.00
2019-05-11T01:32:40.199Z,0.00
2019-05-11T01:33:40.297Z,0.00
2019-05-11T01:34:40.381Z,0.00
2019-05-11T01:35:40.480Z,0.00
2019-05-11T01:36:40.566Z,0.00
2019-05-11T01:37:40.660Z,0.00
2019-05-11T01:38:40.750Z,0.00
2019-05-11T01:39:40.842Z,0.00
2019-05-11T01:40:40.933Z,0.00
2019-05-11T01:41:41.030Z,0.00
2019-05-11T01:42:41.117Z,0.00
2019-05-11T01:43:41.213Z,0.00
2019-05-11T01:44:41.305Z,0.00
2019-05-11T01:45:41.390Z,0.00
2019-05-11T01:46:41.480Z,0.00
2019-05-11T01:47:41.578Z,0.00
2019-05-11T01:48:41.667Z,0.00
2019-05-11T01:49:41.760Z,0.00
2019-05-11T01:50:41.852Z,0.00
2019-05-11T01:51:41.945Z,0.00
2019-05-11T01:52:42.034Z,0.00
2019-05-11T01:53:42.134Z,0.00
2019-05-11T01:54:42.222Z,0.00
2019-05-11T01:55:42.312Z,0.00
2019-05-11T01:56:42.405Z,0.00
2019-05-11T01:57:42.499Z,0.00
2019-05-11T01:58:42.589Z,0.00
2019-05-11T01:59:42.683Z,0.00
2019-05-11T02:00:42.773Z,0.00
2019-05-11T02:01:42.865Z,0.00
2019-05-11T02:02:42.955Z,0.00
2019-05-11T02:03:43.046Z,0.00
2019-05-11T02:04:43.140Z,0.00
2019-05-11T02:05:43.223Z,0.00
2019-05-11T02:06:43.317Z,0.00
2019-05-11T02:07:43.408Z,0.00
2019-05-11T02:08:43.499Z,0.00
2019-05-11T02:09:43.593Z,0.00
2019-05-11T02:10:43.689Z,0.00
2019-05-11T02:11:43.770Z,0.00
2019-05-11T02:12:43.860Z,0.00
2019-05-11T02:13:43.952Z,0.00
2019-05-11T02:14:44.044Z,0.00
2019-05-11T02:15:44.131Z,0.00
2019-05-11T02:16:44.220Z,0.00
2019-05-11T02:17:44.313Z,0.00
2019-05-11T02:18:44.406Z,0.00
2019-05-11T02:19:44.497Z,0.00
2019-05-11T02:20:44.586Z,0.00
2019-05-11T02:21:44.689Z,0.00
2019-05-11T02:22:44.769Z,0.00
2019-05-11T02:23:44.865Z,0.00
2019-05-11T02:24:44.943Z,0.00
2019-05-11T02:25:45.044Z,0.00
2019-05-11T02:26:45.132Z,0.00
2019-05-11T02:27:45.225Z,0.00
2019-05-11T02:28:45.319Z,0.00
2019-05-11T02:29:45.409Z,0.00
2019-05-11T02:30:45.595Z,0.00
2019-05-11T02:31:45.596Z,0.00
2019-05-11T02:32:45.684Z,0.00
2019-05-11T02:33:45.778Z,0.00
2019-05-11T02:34:45.864Z,0.00
2019-05-11T02:35:45.971Z,0.00
2019-05-11T02:36:46.045Z,0.00
2019-05-11T02:37:46.141Z,0.00
2019-05-11T02:38:46.229Z,0.00
2019-05-11T02:39:46.321Z,0.00
2019-05-11T02:40:46.411Z,0.00
2019-05-11T02:41:46.510Z,0.00
2019-05-11T02:42:46.595Z,0.00
2019-05-11T02:43:46.690Z,0.00
2019-05-11T02:44:46.788Z,0.00
2019-05-11T02:45:46.872Z,0.00
2019-05-11T02:46:46.961Z,0.00
2019-05-11T02:47:47.057Z,0.00
2019-05-11T02:48:47.148Z,0.00
2019-05-11T02:49:47.242Z,0.00
2019-05-11T02:50:47.328Z,0.00
2019-05-11T02:51:47.418Z,0.00
2019-05-11T02:52:47.505Z,0.00
2019-05-11T02:53:47.594Z,0.00
2019-05-11T02:54:47.687Z,0.00
2019-05-11T02:55:47.801Z,0.00
2019-05-11T02:56:47.877Z,0.00
2019-05-11T02:57:47.960Z,0.00
2019-05-11T02:58:48.053Z,0.00
2019-05-11T02:59:48.145Z,0.00
2019-05-11T03:00:48.231Z,0.00
2019-05-11T03:01:48.321Z,0.00
2019-05-11T03:02:48.415Z,0.00
2019-05-11T03:03:48.508Z,4.00
2019-05-11T03:04:48.600Z,0.00
2019-05-11T03:05:48.693Z,0.00
2019-05-11T03:06:48.782Z,0.00
2019-05-11T03:07:48.873Z,0.00
2019-05-11T03:08:48.963Z,0.00
2019-05-11T03:09:49.054Z,4.00
2019-05-11T03:10:49.147Z,4.00
2019-05-11T03:11:56.664Z,4.00
2019-05-11T03:12:49.393Z,4.00
2019-05-11T03:13:49.459Z,4.00
2019-05-11T03:14:49.547Z,4.00
2019-05-11T03:15:49.643Z,0.00
2019-05-11T03:16:49.742Z,0.00
2019-05-11T03:17:49.821Z,4.00
2019-05-11T03:18:49.915Z,4.00
2019-05-11T03:19:50.009Z,4.00
2019-05-11T03:20:50.095Z,4.00
2019-05-11T03:21:50.187Z,4.00
2019-05-11T03:22:50.284Z,4.00
2019-05-11T03:23:50.370Z,8.00
2019-05-11T03:24:50.457Z,4.00
2019-05-11T03:25:50.546Z,4.00
2019-05-11T03:26:50.641Z,4.00
2019-05-11T03:27:50.806Z,8.00
2019-05-11T03:28:50.823Z,8.00
2019-05-11T03:29:50.914Z,4.00
2019-05-11T03:30:51.005Z,8.00
2019-05-11T03:31:51.100Z,8.00
2019-05-11T03:32:51.184Z,8.00
2019-05-11T03:33:51.296Z,8.00
2019-05-11T03:34:51.377Z,12.00
2019-05-11T03:35:51.488Z,8.00
2019-05-11T03:36:51.555Z,12.00
2019-05-11T03:37:51.658Z,8.00
2019-05-11T03:38:51.737Z,12.00
2019-05-11T03:39:51.835Z,12.00
2019-05-11T03:40:51.925Z,16.00
2019-05-11T03:41:52.018Z,16.00
2019-05-11T03:42:52.103Z,16.00
2019-05-11T03:43:52.193Z,16.00
2019-05-11T03:44:52.280Z,16.00
2019-05-11T03:45:52.373Z,20.00
2019-05-11T03:46:52.468Z,20.00
2019-05-11T03:47:52.572Z,24.00
2019-05-11T03:48:52.647Z,24.00
2019-05-11T03:49:52.736Z,24.00
2019-05-11T03:50:52.830Z,28.00
2019-05-11T03:51:52.921Z,28.00
2019-05-11T03:52:53.016Z,32.00
2019-05-11T03:53:53.107Z,32.00
2019-05-11T03:54:53.195Z,36.00
2019-05-11T03:55:53.294Z,40.00
2019-05-11T03:56:53.390Z,44.00
2019-05-11T03:57:53.481Z,48.00
2019-05-11T03:58:53.565Z,52.00
2019-05-11T03:59:53.666Z,52.00
2019-05-11T04:00:53.754Z,56.00
2019-05-11T04:01:53.854Z,56.00
2019-05-11T04:02:53.937Z,64.00
2019-05-11T04:03:54.022Z,68.00
2019-05-11T04:04:54.113Z,72.00
2019-05-11T04:05:54.205Z,80.00
2019-05-11T04:06:54.297Z,88.00
2019-05-11T04:07:54.391Z,92.00
2019-05-11T04:08:54.485Z,100.00
2019-05-11T04:09:54.580Z,108.00
2019-05-11T04:10:54.663Z,112.00
2019-05-11T04:11:54.866Z,120.00
2019-05-11T04:12:54.848Z,124.00
2019-05-11T04:13:54.943Z,136.00
2019-05-11T04:14:55.033Z,144.00
2019-05-11T04:15:55.128Z,156.00
2019-05-11T04:16:55.235Z,168.00
2019-05-11T04:17:55.311Z,188.00
2019-05-11T04:18:55.403Z,204.00
2019-05-11T04:19:55.494Z,216.00
2019-05-11T04:20:55.587Z,228.00
2019-05-11T04:21:55.671Z,232.00
2019-05-11T04:22:55.759Z,232.00
2019-05-11T04:23:55.856Z,232.00
2019-05-11T04:24:55.947Z,232.00
2019-05-11T04:25:56.041Z,228.00
2019-05-11T04:26:56.131Z,220.00
2019-05-11T04:27:56.220Z,212.00
2019-05-11T04:28:56.309Z,204.00
2019-05-11T04:29:56.401Z,200.00
2019-05-11T04:30:56.490Z,192.00
2019-05-11T04:31:56.587Z,192.00
2019-05-11T04:32:56.677Z,196.00
2019-05-11T04:33:56.775Z,200.00
2019-05-11T04:34:56.862Z,212.00
2019-05-11T04:35:56.953Z,220.00
2019-05-11T04:36:57.046Z,228.00
2019-05-11T04:37:57.134Z,228.00
2019-05-11T04:38:57.231Z,220.00
2019-05-11T04:39:57.336Z,208.00
2019-05-11T04:40:57.411Z,196.00
2019-05-11T04:41:57.511Z,188.00
2019-05-11T04:42:57.605Z,192.00
2019-05-11T04:43:57.679Z,196.00
2019-05-11T04:44:57.776Z,200.00
2019-05-11T04:45:57.869Z,208.00
2019-05-11T04:46:57.963Z,216.00
2019-05-11T04:47:58.046Z,228.00
2019-05-11T04:48:58.135Z,236.00
2019-05-11T04:49:58.232Z,244.00
2019-05-11T04:50:58.319Z,248.00
2019-05-11T04:51:58.411Z,256.00
2019-05-11T04:52:58.503Z,264.00
2019-05-11T04:53:58.595Z,272.00
2019-05-11T04:54:58.687Z,288.00
2019-05-11T04:55:58.774Z,300.00
2019-05-11T04:56:58.869Z,312.00
2019-05-11T04:57:58.959Z,328.00
2019-05-11T04:58:59.053Z,340.00
2019-05-11T04:59:59.142Z,364.00
2019-05-11T05:00:59.230Z,384.00
2019-05-11T05:01:59.323Z,412.00
2019-05-11T05:02:59.413Z,444.00
2019-05-11T05:04:13.415Z,484.00
2019-05-11T05:04:59.600Z,516.00
2019-05-11T05:06:20.990Z,548.00
2019-05-11T05:07:00.500Z,588.00
2019-05-11T05:08:09.043Z,616.00
2019-05-11T05:09:03.810Z,668.00
2019-05-11T05:10:00.053Z,668.00
2019-05-11T05:11:00.771Z,684.00
2019-05-11T05:12:00.239Z,696.00
2019-05-11T05:13:10.287Z,708.00
2019-05-11T05:14:02.147Z,712.00
2019-05-11T05:15:00.522Z,720.00
2019-05-11T05:16:00.607Z,732.00
2019-05-11T05:17:00.698Z,748.00
2019-05-11T05:18:00.791Z,776.00
2019-05-11T05:19:00.881Z,804.00
2019-05-11T05:20:00.974Z,840.00
2019-05-11T05:21:01.064Z,868.00
2019-05-11T05:22:01.154Z,896.00
2019-05-11T05:23:01.248Z,924.00
2019-05-11T05:24:01.340Z,944.00
2019-05-11T05:25:01.476Z,964.00
2019-05-11T05:26:01.523Z,984.00
2019-05-11T05:27:01.617Z,1008.00
2019-05-11T05:28:01.696Z,1052.00
2019-05-11T05:29:01.790Z,1104.00
2019-05-11T05:30:02.029Z,1176.00
2019-05-11T05:31:01.972Z,1252.00
2019-05-11T05:32:02.064Z,1328.00
2019-05-11T05:33:02.156Z,1384.00
2019-05-11T05:34:02.250Z,1424.00
2019-05-11T05:35:02.338Z,1436.00
2019-05-11T05:36:02.427Z,1428.00
2019-05-11T05:37:02.518Z,1400.00
2019-05-11T05:38:02.609Z,1352.00
2019-05-11T05:39:02.699Z,1300.00
2019-05-11T05:40:02.790Z,1264.00
2019-05-11T05:41:02.883Z,1244.00
2019-05-11T05:42:02.976Z,1212.00
2019-05-11T05:43:03.074Z,1188.00
2019-05-11T05:44:03.166Z,1164.00
2019-05-11T05:45:03.254Z,1148.00
2019-05-11T05:46:03.347Z,1140.00
2019-05-11T05:47:03.438Z,1132.00
2019-05-11T05:48:03.554Z,1124.00
2019-05-11T05:49:03.628Z,1080.00
2019-05-11T05:50:03.724Z,1008.00
2019-05-11T05:51:03.816Z,932.00
2019-05-11T05:52:03.948Z,868.00
2019-05-11T05:53:03.999Z,828.00
2019-05-11T05:54:04.095Z,796.00
2019-05-11T05:55:04.191Z,772.00
2019-05-11T05:56:04.285Z,740.00
2019-05-11T05:57:04.374Z,724.00
2019-05-11T05:58:04.461Z,712.00
2019-05-11T05:59:04.555Z,720.00
2019-05-11T06:00:04.645Z,740.00
2019-05-11T06:01:04.738Z,776.00
2019-05-11T06:02:04.830Z,836.00
2019-05-11T06:03:04.932Z,848.00
2019-05-11T06:04:05.023Z,864.00
2019-05-11T06:05:05.116Z,876.00
2019-05-11T06:06:05.208Z,904.00
2019-05-11T06:07:05.301Z,944.00
2019-05-11T06:08:05.392Z,1008.00
2019-05-11T06:09:05.487Z,1056.00
2019-05-11T06:10:05.576Z,1084.00
2019-05-11T06:11:05.668Z,1044.00
2019-05-11T06:12:05.758Z,984.00
2019-05-11T06:13:05.852Z,904.00
2019-05-11T06:14:05.945Z,836.00
2019-05-11T06:15:06.035Z,780.00
2019-05-11T06:16:06.123Z,736.00
2019-05-11T06:17:06.220Z,692.00
2019-05-11T06:18:06.317Z,668.00
2019-05-11T06:19:06.407Z,656.00
2019-05-11T06:20:06.554Z,672.00
2019-05-11T06:21:06.590Z,716.00
2019-05-11T06:22:06.685Z,764.00
2019-05-11T06:23:06.774Z,768.00
2019-05-11T06:24:08.268Z,780.00
2019-05-11T06:25:06.964Z,808.00
2019-05-11T06:26:07.047Z,864.00
2019-05-11T06:27:07.139Z,956.00
2019-05-11T06:28:07.234Z,1036.00
2019-05-11T06:29:07.324Z,1104.00
2019-05-11T06:30:07.406Z,1180.00
2019-05-11T06:31:07.499Z,1216.00
2019-05-11T06:32:07.590Z,1244.00
2019-05-11T06:33:07.681Z,1264.00
2019-05-11T06:34:07.772Z,1276.00
2019-05-11T06:35:07.867Z,1264.00
2019-05-11T06:36:07.955Z,1244.00
2019-05-11T06:37:08.049Z,1224.00
2019-05-11T06:38:08.141Z,1204.00
2019-05-11T06:39:08.232Z,1200.00
2019-05-11T06:40:08.330Z,1212.00
2019-05-11T06:41:08.420Z,1228.00
2019-05-11T06:42:08.513Z,1244.00
2019-05-11T06:43:08.604Z,1276.00
2019-05-11T06:44:08.696Z,1312.00
2019-05-11T06:45:08.790Z,1324.00
2019-05-11T06:46:08.883Z,1344.00
2019-05-11T06:47:08.975Z,1348.00
2019-05-11T06:48:09.058Z,1364.00
2019-05-11T06:49:09.162Z,1412.00
2019-05-11T06:50:09.255Z,1460.00
2019-05-11T06:51:09.349Z,1520.00
2019-05-11T06:52:09.440Z,1552.00
2019-05-11T06:53:09.533Z,1604.00
2019-05-11T06:54:09.632Z,1652.00
2019-05-11T06:55:09.725Z,1700.00
2019-05-11T06:56:09.818Z,1732.00
2019-05-11T06:57:09.914Z,1724.00
2019-05-11T06:58:10.003Z,1700.00
2019-05-11T06:59:10.094Z,1652.00
2019-05-11T07:00:10.186Z,1592.00
2019-05-11T07:01:10.271Z,1548.00
2019-05-11T07:02:10.361Z,1520.00
2019-05-11T07:03:10.456Z,1508.00
2019-05-11T07:04:10.543Z,1496.00
2019-05-11T07:05:10.635Z,1520.00
2019-05-11T07:06:10.729Z,1580.00
2019-05-11T07:07:10.822Z,1668.00
2019-05-11T07:08:10.917Z,1756.00
2019-05-11T07:09:11.008Z,1836.00
2019-05-11T07:10:11.102Z,1924.00
2019-05-11T07:11:11.196Z,1952.00
2019-05-11T07:12:11.402Z,1960.00
2019-05-11T07:13:11.387Z,2000.00
2019-05-11T07:14:20.526Z,2028.00
2019-05-11T07:15:11.570Z,2032.00
2019-05-11T07:16:11.659Z,2044.00
2019-05-11T07:17:11.752Z,2048.00
2019-05-11T07:18:11.843Z,2044.00
2019-05-11T07:19:11.933Z,2036.00
2019-05-11T07:20:12.043Z,2044.00
2019-05-11T07:21:12.129Z,2044.00
2019-05-11T07:22:12.222Z,2040.00
2019-05-11T07:23:12.310Z,2036.00
2019-05-11T07:24:12.404Z,2032.00
2019-05-11T07:25:12.504Z,2028.00
2019-05-11T07:26:12.591Z,2024.00
2019-05-11T07:27:12.682Z,2012.00
2019-05-11T07:28:12.776Z,2016.00
2019-05-11T07:29:12.871Z,2028.00
2019-05-11T07:30:12.961Z,2052.00
2019-05-11T07:31:13.060Z,2084.00
2019-05-11T07:32:22.386Z,2104.00
2019-05-11T07:33:13.256Z,2120.00
2019-05-11T07:34:13.349Z,2116.00
2019-05-11T07:35:13.440Z,2100.00
2019-05-11T07:36:13.527Z,2076.00
2019-05-11T07:37:13.641Z,2040.00
2019-05-11T07:38:13.712Z,1996.00
2019-05-11T07:39:13.818Z,1964.00
2019-05-11T07:40:13.912Z,1948.00
2019-05-11T07:41:14.001Z,1896.00
2019-05-11T07:42:14.099Z,1828.00
2019-05-11T07:43:14.187Z,1744.00
2019-05-11T07:44:14.281Z,1676.00
2019-05-11T07:45:14.376Z,1592.00
2019-05-11T07:46:14.466Z,1532.00
2019-05-11T07:47:14.561Z,1452.00
2019-05-11T07:48:14.653Z,1384.00
2019-05-11T07:49:14.749Z,1332.00
2019-05-11T07:50:14.836Z,1276.00
2019-05-11T07:51:14.930Z,1244.00
2019-05-11T07:52:15.045Z,1260.00
2019-05-11T07:53:15.140Z,1284.00
2019-05-11T07:54:15.233Z,1356.00
2019-05-11T07:55:15.336Z,1436.00
2019-05-11T07:56:15.427Z,1524.00
2019-05-11T07:57:15.510Z,1656.00
2019-05-11T07:58:15.610Z,1752.00
2019-05-11T07:59:15.705Z,1828.00
2019-05-11T08:00:15.796Z,1976.00
2019-05-11T08:01:15.888Z,2100.00
2019-05-11T08:02:17.806Z,2312.00
2019-05-11T08:03:18.066Z,2528.00
2019-05-11T08:04:18.176Z,2808.00
2019-05-11T08:05:17.964Z,3140.00
2019-05-11T08:06:18.302Z,3548.00
2019-05-11T08:07:18.140Z,3912.00
2019-05-11T08:08:18.052Z,4268.00
2019-05-11T08:09:18.690Z,4572.00
2019-05-11T08:10:18.593Z,4800.00
2019-05-11T08:11:18.235Z,4932.00
2019-05-11T08:12:19.034Z,4932.00
2019-05-11T08:13:17.809Z,4980.00
2019-05-11T08:14:18.267Z,4876.00
2019-05-11T08:15:18.390Z,4692.00
2019-05-11T08:16:18.602Z,4472.00
2019-05-11T08:17:18.634Z,4084.00
2019-05-11T08:18:18.917Z,3804.00
2019-05-11T08:19:18.523Z,3524.00
2019-05-11T08:20:18.718Z,3336.00
2019-05-11T08:21:17.999Z,3448.00
2019-05-11T08:22:22.164Z,3592.00
2019-05-11T08:23:18.165Z,3804.00
2019-05-11T08:24:18.144Z,4092.00
2019-05-11T08:25:18.341Z,4344.00
2019-05-11T08:26:19.096Z,4732.00
2019-05-11T08:27:18.802Z,4944.00
2019-05-11T08:28:18.506Z,4904.00
2019-05-11T08:29:18.656Z,4872.00
2019-05-11T08:30:18.914Z,5076.00
2019-05-11T08:31:18.877Z,5364.00
2019-05-11T08:32:18.720Z,5536.00
2019-05-11T08:33:18.813Z,5956.00
2019-05-11T08:34:18.911Z,6220.00
2019-05-11T08:35:19.000Z,6388.00
2019-05-11T08:36:19.090Z,6236.00
2019-05-11T08:37:19.193Z,6116.00
2019-05-11T08:38:19.278Z,5744.00
2019-05-11T08:39:19.374Z,5396.00
2019-05-11T08:40:19.465Z,5388.00
2019-05-11T08:41:19.562Z,5304.00
2019-05-11T08:42:19.655Z,5224.00
2019-05-11T08:43:19.750Z,5028.00
2019-05-11T08:44:19.839Z,4852.00
2019-05-11T08:45:24.501Z,4564.00
2019-05-11T08:46:20.025Z,4400.00
2019-05-11T08:47:20.119Z,4104.00
2019-05-11T08:48:20.214Z,3936.00
2019-05-11T08:49:20.307Z,3952.00
2019-05-11T08:50:20.401Z,3864.00
2019-05-11T08:51:20.481Z,4056.00
2019-05-11T08:52:20.576Z,4272.00
2019-05-11T08:53:20.668Z,4448.00
2019-05-11T08:54:20.759Z,4668.00
2019-05-11T08:55:20.851Z,4856.00
2019-05-11T08:56:20.967Z,4852.00
2019-05-11T08:57:21.061Z,4912.00
2019-05-11T08:58:21.151Z,4924.00
2019-05-11T08:59:21.247Z,4728.00
2019-05-11T09:00:21.341Z,4420.00
2019-05-11T09:01:21.433Z,4360.00
2019-05-11T09:02:21.530Z,4080.00
2019-05-11T09:03:21.612Z,4008.00
2019-05-11T09:04:21.708Z,3992.00
2019-05-11T09:05:21.799Z,3996.00
2019-05-11T09:06:21.892Z,3900.00
2019-05-11T09:07:21.988Z,3420.00
2019-05-11T09:08:22.079Z,3232.00
2019-05-11T09:09:22.189Z,3496.00
2019-05-11T09:10:22.285Z,3496.00
2019-05-11T09:11:31.062Z,3144.00
2019-05-11T09:12:22.531Z,2888.00
2019-05-11T09:13:22.626Z,2768.00
2019-05-11T09:14:22.715Z,2628.00
2019-05-11T09:15:33.586Z,2468.00
2019-05-11T09:16:22.907Z,2360.00
2019-05-11T09:17:22.996Z,2368.00
2019-05-11T09:18:23.092Z,2212.00
2019-05-11T09:19:23.187Z,2260.00
2019-05-11T09:20:23.280Z,2344.00
2019-05-11T09:21:23.373Z,2664.00
2019-05-11T09:22:23.466Z,2580.00
2019-05-11T09:23:34.483Z,2532.00
2019-05-11T09:24:23.641Z,2344.00
2019-05-11T09:25:23.736Z,2512.00
2019-05-11T09:26:23.832Z,2408.00
2019-05-11T09:27:23.926Z,2104.00
2019-05-11T09:28:24.021Z,1876.00
2019-05-11T09:29:24.133Z,2076.00
2019-05-11T09:30:24.226Z,2220.00
2019-05-11T09:31:24.321Z,2580.00
2019-05-11T09:32:24.416Z,2636.00
2019-05-11T09:33:24.510Z,2324.00
2019-05-11T09:34:24.605Z,2132.00
2019-05-11T09:35:24.697Z,1996.00
2019-05-11T09:36:24.836Z,1708.00
2019-05-11T09:37:24.885Z,1608.00
2019-05-11T09:38:24.980Z,1604.00
2019-05-11T09:39:25.068Z,1544.00
2019-05-11T09:40:25.165Z,1404.00
2019-05-11T09:41:25.258Z,1592.00
2019-05-11T09:42:25.358Z,1976.00
2019-05-11T09:43:25.451Z,1896.00
2019-05-11T09:44:25.543Z,1988.00
2019-05-11T09:45:27.672Z,2032.00
2019-05-11T09:46:27.759Z,2068.00
2019-05-11T09:47:27.854Z,2280.00
2019-05-11T09:48:28.251Z,2396.00
2019-05-11T09:49:43.454Z,2296.00
2019-05-11T09:50:27.752Z,2236.00
2019-05-11T09:51:28.570Z,2164.00
2019-05-11T09:52:27.575Z,2236.00
2019-05-11T09:53:28.358Z,2760.00
2019-05-11T09:54:28.743Z,3348.00
2019-05-11T09:55:28.277Z,3692.00
2019-05-11T09:56:28.649Z,4004.00
2019-05-11T09:57:27.634Z,4056.00
2019-05-11T09:58:28.077Z,4128.00
2019-05-11T09:59:28.229Z,4060.00
2019-05-11T10:00:28.243Z,3880.00
2019-05-11T10:01:29.482Z,3692.00
2019-05-11T10:02:27.935Z,3492.00
2019-05-11T10:03:28.160Z,3376.00
2019-05-11T10:04:28.885Z,3424.00
2019-05-11T10:05:28.607Z,3556.00
2019-05-11T10:06:28.204Z,3656.00
2019-05-11T10:07:28.579Z,3496.00
2019-05-11T10:08:28.700Z,3356.00
2019-05-11T10:09:28.198Z,3056.00
2019-05-11T10:10:28.964Z,2532.00
2019-05-11T10:11:28.354Z,2016.00
2019-05-11T10:12:28.659Z,1960.00
2019-05-11T10:13:28.288Z,2128.00
2019-05-11T10:14:28.974Z,2404.00
2019-05-11T10:15:28.474Z,2456.00
2019-05-11T10:16:28.568Z,2452.00
2019-05-11T10:17:28.853Z,2248.00
2019-05-11T10:18:28.762Z,2036.00
2019-05-11T10:19:29.102Z,2012.00
2019-05-11T10:20:28.946Z,2160.00
2019-05-11T10:21:29.041Z,2232.00
2019-05-11T10:22:29.138Z,2108.00
2019-05-11T10:23:29.229Z,1904.00
2019-05-11T10:24:29.328Z,1788.00
2019-05-11T10:25:29.419Z,1700.00
2019-05-11T10:26:29.534Z,1508.00
2019-05-11T10:27:29.605Z,1380.00
2019-05-11T10:28:29.692Z,1304.00
2019-05-11T10:29:29.792Z,1284.00
2019-05-11T10:30:29.887Z,1232.00
2019-05-11T10:31:29.982Z,1172.00
2019-05-11T10:32:30.074Z,1088.00
2019-05-11T10:33:30.167Z,972.00
2019-05-11T10:34:30.260Z,1040.00
2019-05-11T10:35:30.354Z,1148.00
2019-05-11T10:36:30.445Z,1152.00
2019-05-11T10:37:30.540Z,1200.00
2019-05-11T10:38:30.635Z,1220.00
2019-05-11T10:39:30.725Z,1192.00
2019-05-11T10:40:30.822Z,1244.00
2019-05-11T10:41:30.905Z,1460.00
2019-05-11T10:42:30.996Z,1736.00
2019-05-11T10:43:31.084Z,2000.00
2019-05-11T10:44:31.176Z,2012.00
2019-05-11T10:45:31.267Z,1740.00
2019-05-11T10:46:31.365Z,1348.00
2019-05-11T10:47:31.458Z,1184.00
2019-05-11T10:48:31.552Z,1392.00
2019-05-11T10:49:31.650Z,1548.00
2019-05-11T10:50:31.739Z,1468.00
2019-05-11T10:51:31.835Z,1180.00
2019-05-11T10:52:31.930Z,932.00
2019-05-11T10:53:32.023Z,836.00
2019-05-11T10:54:32.118Z,756.00
2019-05-11T10:55:32.208Z,732.00
2019-05-11T10:56:32.299Z,756.00
2019-05-11T10:57:32.400Z,860.00
2019-05-11T10:58:32.489Z,912.00
2019-05-11T10:59:32.580Z,940.00
2019-05-11T11:00:32.674Z,1064.00
2019-05-11T11:01:32.769Z,908.00
2019-05-11T11:02:32.866Z,764.00
2019-05-11T11:03:32.957Z,660.00
2019-05-11T11:04:33.051Z,648.00
2019-05-11T11:05:33.145Z,776.00
2019-05-11T11:06:33.242Z,836.00
2019-05-11T11:07:33.330Z,908.00
2019-05-11T11:08:33.424Z,1232.00
2019-05-11T11:09:33.525Z,1456.00
2019-05-11T11:10:33.607Z,1536.00
2019-05-11T11:11:33.699Z,1408.00
2019-05-11T11:12:33.798Z,1332.00
2019-05-11T11:13:33.888Z,1220.00
2019-05-11T11:14:33.980Z,1272.00
2019-05-11T11:15:34.075Z,1096.00
2019-05-11T11:16:38.716Z,1088.00
2019-05-11T11:17:34.261Z,1136.00
2019-05-11T11:18:34.357Z,1348.00
2019-05-11T11:19:34.452Z,1424.00
2019-05-11T11:20:34.546Z,1424.00
2019-05-11T11:21:34.638Z,1604.00
2019-05-11T11:22:40.182Z,1688.00
2019-05-11T11:23:34.824Z,1660.00
2019-05-11T11:24:34.913Z,1516.00
2019-05-11T11:25:35.006Z,1480.00
2019-05-11T11:26:35.098Z,1288.00
2019-05-11T11:27:35.191Z,1140.00
2019-05-11T11:28:35.277Z,1224.00
2019-05-11T11:29:35.373Z,1212.00
2019-05-11T11:30:37.717Z,1444.00
2019-05-11T11:31:37.432Z,1360.00
2019-05-11T11:32:38.104Z,1224.00
2019-05-11T11:33:38.067Z,1316.00
2019-05-11T11:34:35.837Z,1600.00
2019-05-11T11:35:38.331Z,1804.00
2019-05-11T11:36:37.595Z,2200.00
2019-05-11T11:37:38.464Z,2572.00
2019-05-11T11:38:37.604Z,2744.00
2019-05-11T11:39:38.675Z,2892.00
2019-05-11T11:40:38.541Z,3008.00
2019-05-11T11:41:37.902Z,3000.00
2019-05-11T11:42:37.719Z,3012.00
2019-05-11T11:43:37.768Z,3028.00
2019-05-11T11:44:37.984Z,2972.00
2019-05-11T11:45:38.091Z,2952.00
2019-05-11T11:46:51.247Z,2896.00
2019-05-11T11:47:38.419Z,2808.00
2019-05-11T11:48:38.524Z,2736.00
2019-05-11T11:49:38.340Z,2656.00
2019-05-11T11:50:37.706Z,2640.00
2019-05-11T11:51:37.819Z,2512.00
2019-05-11T11:52:38.275Z,2572.00
2019-05-11T11:53:38.357Z,2628.00
2019-05-11T11:54:38.655Z,2504.00
2019-05-11T11:55:39.056Z,2188.00
2019-05-11T11:56:38.151Z,2168.00
2019-05-11T11:57:38.190Z,2484.00
2019-05-11T11:58:38.237Z,2324.00
2019-05-11T11:59:38.678Z,1900.00
2019-05-11T12:00:39.082Z,1560.00
2019-05-11T12:01:38.665Z,1632.00
2019-05-11T12:02:38.869Z,1952.00
2019-05-11T12:03:38.540Z,2208.00
2019-05-11T12:04:38.911Z,2348.00
2019-05-11T12:05:38.776Z,2172.00
2019-05-11T12:06:38.819Z,2208.00
2019-05-11T12:07:38.913Z,2276.00
2019-05-11T12:08:39.101Z,2344.00
2019-05-11T12:09:39.103Z,2416.00
2019-05-11T12:10:39.196Z,2504.00
2019-05-11T12:11:39.289Z,2572.00
2019-05-11T12:12:39.388Z,2636.00
2019-05-11T12:13:39.483Z,2624.00
2019-05-11T12:14:39.566Z,2844.00
2019-05-11T12:15:39.660Z,2844.00
2019-05-11T12:16:39.753Z,2704.00
2019-05-11T12:17:39.845Z,2552.00
2019-05-11T12:18:39.939Z,2812.00
2019-05-11T12:19:40.036Z,3012.00
2019-05-11T12:20:40.134Z,3072.00
2019-05-11T12:21:40.220Z,3092.00
2019-05-11T12:22:40.313Z,3060.00
2019-05-11T12:23:40.406Z,3424.00
2019-05-11T12:24:40.499Z,3500.00
2019-05-11T12:25:40.779Z,3656.00
2019-05-11T12:26:40.689Z,3732.00
2019-05-11T12:27:40.778Z,3844.00
2019-05-11T12:28:40.870Z,3668.00
2019-05-11T12:29:40.966Z,3516.00
2019-05-11T12:30:41.061Z,3580.00
2019-05-11T12:31:41.153Z,3640.00
2019-05-11T12:32:41.246Z,3500.00